Portada
METAR-TAF:

METAR-TAF

Aeropuertos :

Aeropuerto Internacional Antonio B. Won Pat

Agaña, Guam, Estados Unidos

latitud: 13-29N, longitud: 144-48E, altitud: 91 m

Observación

El informe se hizo hace 25 minutos, a las 22:54 UTC
Viento 15 kt del este con ráfagas de 21 kt
Temperatura 27°C
Humedad 66%
Presión 1017 hPa
Visibilidad: 16.1 km
Cielo despejado

METAR: PGUM 202254Z 08015G21KT 10SM CLR 27/20 A3003 RMK AO2 SLP162 T02670200

Hora: 09:19 (23:19 UTC)

Pronóstico

El informe se hizo hace 5 horas y 53 minutos, a las 17:26 UTC
Pronóstico válido del 20 a las 18 UTC al 21 a las 24 UTC
Viento 16 kt del este-noreste con ráfagas de 22 kt
Visibilidad: 10 km
Nubes dispersas a una altura de 2500 ft
Cielo nuboso a una altura de 8000 ft
chaparrones en las proximidades,

TAF: PGUM 201726Z 2018/2124 06016G22KT P6SM VCSH SCT025 BKN080

Observaciones y pronósticos meteorológicos de más de 4000 aeropuertos (mensajes METAR y TAF).

Los puntos amarillos y rojos representan las estaciones disponibles.

Ponga el ratón en el punto deseado para ver el nombre de la estación.

Haga clic para ver las observaciones y los pronósticos meteorológicos.

Para cambiar el mapa : haga clic en los botones verdes con una cruz de color negro para hacer un zoom, en el botón verde con un guión para alejar o en las flechas verdes para mapas adyacentes.


METAR-TAF: